createdAt,value
2019-04-20T00:00:44.338Z,42.19
2019-04-20T00:01:38.936Z,42.38
2019-04-20T00:02:39.896Z,42.36
2019-04-20T00:03:43.201Z,42.57
2019-04-20T00:04:39.086Z,42.77
2019-04-20T00:05:39.251Z,42.77
2019-04-20T00:06:46.083Z,42.96
2019-04-20T00:07:39.702Z,42.84
2019-04-20T00:08:41.174Z,42.93
2019-04-20T00:09:41.663Z,42.74
2019-04-20T00:10:48.731Z,42.84
2019-04-20T00:11:50.712Z,42.93
2019-04-20T00:12:54.559Z,42.84
2019-04-20T00:13:47.687Z,42.74
2019-04-20T00:14:41.323Z,42.84
2019-04-20T00:15:39.360Z,42.93
2019-04-20T00:16:39.929Z,42.93
2019-04-20T00:17:45.898Z,42.84
2019-04-20T00:18:46.603Z,43.03
2019-04-20T00:19:44.091Z,43.51
2019-04-20T00:20:40.733Z,43.70
2019-04-20T00:21:47.023Z,43.41
2019-04-20T00:22:46.094Z,43.70
2019-04-20T00:23:42.059Z,43.89
2019-04-20T00:24:41.092Z,43.98
2019-04-20T00:25:52.213Z,43.70
2019-04-20T00:27:59.618Z,43.98
2019-04-20T00:28:52.210Z,44.56
2019-04-20T00:29:56.167Z,44.37
2019-04-20T00:31:04.423Z,43.98
2019-04-20T00:31:52.318Z,43.98
2019-04-20T00:32:53.368Z,44.56
2019-04-20T00:33:54.953Z,44.56
2019-04-20T00:34:42.350Z,44.46
2019-04-20T00:35:40.249Z,44.56
2019-04-20T00:36:41.091Z,44.65
2019-04-20T00:37:40.262Z,44.65
2019-04-20T00:38:47.794Z,44.74
2019-04-20T00:39:40.566Z,44.94
2019-04-20T00:40:41.233Z,44.65
2019-04-20T00:43:26.472Z,45.32
2019-04-20T00:44:26.060Z,45.13
2019-04-20T00:46:30.463Z,44.82
2019-04-20T00:47:34.841Z,45.20
2019-04-20T00:49:41.921Z,45.29
2019-04-20T00:50:45.868Z,44.82
2019-04-20T00:52:50.911Z,44.94
2019-04-20T00:53:38.004Z,44.82
2019-04-20T00:55:36.089Z,44.92
2019-04-20T00:56:37.002Z,44.82
2019-04-20T00:58:52.179Z,45.20
2019-04-20T00:59:59.290Z,45.20
2019-04-20T01:02:03.664Z,45.20
2019-04-20T01:02:54.140Z,45.49
2019-04-20T01:07:56.325Z,45.10
2019-04-20T01:08:53.021Z,45.87
2019-04-20T01:10:59.095Z,45.39
2019-04-20T01:11:56.591Z,45.49
2019-04-20T01:13:55.256Z,45.68
2019-04-20T01:14:54.000Z,45.49
2019-04-20T01:16:58.827Z,46.15
2019-04-20T01:17:53.108Z,46.15
2019-04-20T01:19:57.164Z,45.78
2019-04-20T01:21:04.670Z,45.97
2019-04-20T01:23:07.611Z,46.54
2019-04-20T01:24:04.936Z,46.44
2019-04-20T01:26:10.859Z,46.82
2019-04-20T01:27:10.941Z,46.54
2019-04-20T01:29:23.780Z,46.61
2019-04-20T01:30:18.156Z,46.63
2019-04-20T01:32:23.343Z,46.61
2019-04-20T01:33:27.916Z,46.80
2019-04-20T01:35:36.168Z,47.85
2019-04-20T01:36:36.891Z,47.75
2019-04-20T01:38:35.572Z,47.75
2019-04-20T01:39:28.332Z,47.37
2019-04-20T01:41:26.527Z,47.75
2019-04-20T01:42:25.591Z,48.13
2019-04-20T01:44:27.025Z,48.32
2019-04-20T01:45:27.082Z,48.61
2019-04-20T01:47:29.943Z,48.90
2019-04-20T01:48:30.097Z,48.99
2019-04-20T01:50:31.217Z,49.08
2019-04-20T01:51:32.012Z,48.71
2019-04-20T01:53:44.206Z,48.90
2019-04-20T01:54:52.729Z,48.71
2019-04-20T01:56:47.606Z,49.08
2019-04-20T01:57:56.348Z,49.47
2019-04-20T01:59:52.258Z,49.35
2019-04-20T02:00:42.046Z,49.73
2019-04-20T02:02:49.717Z,49.92
2019-04-20T02:03:46.708Z,49.26
2019-04-20T02:05:54.751Z,49.44
2019-04-20T02:06:53.107Z,49.44
2019-04-20T02:08:58.228Z,49.44
2019-04-20T02:09:56.853Z,49.54
2019-04-20T02:11:55.702Z,49.82
2019-04-20T02:12:59.809Z,49.63
2019-04-20T02:15:04.004Z,50.11
2019-04-20T02:16:10.244Z,50.30
2019-04-20T02:18:17.603Z,50.30
2019-04-20T02:19:19.601Z,50.49
2019-04-20T02:21:26.030Z,50.59
2019-04-20T02:22:22.955Z,50.49
2019-04-20T02:24:04.064Z,50.59
2019-04-20T02:25:01.629Z,50.30
2019-04-20T02:27:04.407Z,50.78
2019-04-20T02:28:22.841Z,50.59
2019-04-20T02:30:39.627Z,50.59
2019-04-20T02:31:59.439Z,50.78
2019-04-20T02:34:47.740Z,50.78
2019-04-20T02:39:51.514Z,50.66
2019-04-20T02:40:57.410Z,50.75
2019-04-20T02:42:57.581Z,50.94
2019-04-20T02:44:06.393Z,51.32
2019-04-20T02:46:17.109Z,51.32
2019-04-20T02:47:07.515Z,51.23
2019-04-20T02:49:12.932Z,51.89
2019-04-20T02:50:09.202Z,51.32
2019-04-20T02:55:09.360Z,52.28
2019-04-20T02:56:04.925Z,51.99
2019-04-20T02:58:00.700Z,52.37
2019-04-20T02:59:26.979Z,52.56
2019-04-20T03:00:58.413Z,52.84
2019-04-20T03:01:54.790Z,52.75
2019-04-20T03:03:49.142Z,52.47
2019-04-20T03:04:47.854Z,52.66
2019-04-20T03:07:04.248Z,53.32
2019-04-20T03:08:02.600Z,52.92
2019-04-20T03:10:05.527Z,53.61
2019-04-20T03:11:18.063Z,53.58
2019-04-20T03:13:14.176Z,53.77
2019-04-20T03:14:09.550Z,54.06
2019-04-20T03:16:18.783Z,53.96
2019-04-20T03:17:22.628Z,54.44
2019-04-20T03:19:16.105Z,54.35
2019-04-20T03:20:23.311Z,54.15
2019-04-20T03:22:34.979Z,54.72
2019-04-20T03:23:29.764Z,54.35
2019-04-20T03:25:30.073Z,54.82
2019-04-20T03:26:28.748Z,55.01
2019-04-20T03:28:34.595Z,54.63
2019-04-20T03:29:36.994Z,54.91
2019-04-20T03:32:03.948Z,55.58
2019-04-20T03:33:04.362Z,55.29
2019-04-20T03:34:55.593Z,55.01
2019-04-20T03:35:37.093Z,55.49
2019-04-20T03:37:42.768Z,55.68
2019-04-20T03:38:38.316Z,56.05
2019-04-20T03:40:36.390Z,55.77
2019-04-20T03:41:28.238Z,56.05
2019-04-20T03:43:24.498Z,56.15
2019-04-20T03:44:26.398Z,56.34
2019-04-20T03:46:37.589Z,56.44
2019-04-20T03:47:38.589Z,56.63
2019-04-20T03:49:54.945Z,56.63
2019-04-20T03:50:54.989Z,56.44
2019-04-20T03:52:59.523Z,56.44
2019-04-20T03:53:55.205Z,56.82
2019-04-20T03:57:10.322Z,57.45
2019-04-20T03:58:54.758Z,57.48
2019-04-20T04:00:04.894Z,57.36
2019-04-20T04:02:28.545Z,57.45
2019-04-20T04:03:16.584Z,57.84
2019-04-20T04:05:08.936Z,57.74
2019-04-20T04:06:05.232Z,57.65
2019-04-20T04:08:06.168Z,57.45
2019-04-20T04:09:10.303Z,57.74
2019-04-20T04:11:18.888Z,57.93
2019-04-20T04:12:12.188Z,58.22
2019-04-20T04:13:52.924Z,58.69
2019-04-20T04:14:53.690Z,58.22
2019-04-20T04:16:59.655Z,58.12
2019-04-20T04:18:04.388Z,58.50
2019-04-20T04:20:07.109Z,58.59
2019-04-20T04:21:07.997Z,58.59
2019-04-20T04:23:27.052Z,58.59
2019-04-20T04:24:17.230Z,59.07
2019-04-20T04:26:26.176Z,59.36
2019-04-20T04:27:28.467Z,59.36
2019-04-20T04:29:35.627Z,59.55
2019-04-20T04:30:26.344Z,59.55
2019-04-20T04:33:00.500Z,59.55
2019-04-20T04:33:53.176Z,59.45
2019-04-20T04:35:33.176Z,59.27
2019-04-20T04:36:40.452Z,59.45
2019-04-20T04:38:51.096Z,59.74
2019-04-20T04:39:49.261Z,59.64
2019-04-20T04:41:55.915Z,59.74
2019-04-20T04:42:53.166Z,60.02
2019-04-20T04:44:34.353Z,59.45
2019-04-20T04:45:26.525Z,59.74
2019-04-20T04:47:26.381Z,59.83
2019-04-20T04:48:32.125Z,60.31
2019-04-20T04:50:31.846Z,60.21
2019-04-20T04:51:42.608Z,59.64
2019-04-20T04:53:46.106Z,60.12
2019-04-20T04:54:44.504Z,60.78
2019-04-20T04:56:39.681Z,60.88
2019-04-20T04:57:39.006Z,60.02
2019-04-20T04:59:42.663Z,60.88
2019-04-20T05:00:42.694Z,60.78
2019-04-20T05:02:53.830Z,60.60
2019-04-20T05:04:10.563Z,60.78
2019-04-20T05:06:06.668Z,60.60
2019-04-20T05:07:02.562Z,60.60
2019-04-20T05:09:00.229Z,60.97
2019-04-20T05:09:54.918Z,60.97
2019-04-20T05:12:05.475Z,61.16
2019-04-20T05:12:58.877Z,60.69
2019-04-20T05:15:10.201Z,61.45
2019-04-20T05:16:16.878Z,60.88
2019-04-20T05:18:34.675Z,61.10
2019-04-20T05:19:31.002Z,61.07
2019-04-20T05:21:31.306Z,61.64
2019-04-20T05:22:35.176Z,61.45
2019-04-20T05:24:22.651Z,62.02
2019-04-20T05:25:24.128Z,62.30
2019-04-20T05:27:32.122Z,62.12
2019-04-20T05:28:20.811Z,61.83
2019-04-20T05:30:12.034Z,61.83
2019-04-20T05:31:13.457Z,61.86
2019-04-20T05:33:25.615Z,61.58
2019-04-20T05:34:40.092Z,61.86
2019-04-20T05:36:41.633Z,62.24
2019-04-20T05:38:03.082Z,62.43
2019-04-20T05:39:45.793Z,62.34
2019-04-20T05:40:49.004Z,62.24
2019-04-20T05:42:48.896Z,62.62
2019-04-20T05:43:43.147Z,62.72
2019-04-20T05:45:45.362Z,62.72
2019-04-20T05:46:56.598Z,63.01
2019-04-20T05:48:45.782Z,62.91
2019-04-20T05:49:41.471Z,63.01
2019-04-20T05:51:47.548Z,63.01
2019-04-20T05:52:59.740Z,63.01
2019-04-20T05:54:49.342Z,63.01
2019-04-20T05:55:46.491Z,62.81
2019-04-20T05:57:51.009Z,63.01
2019-04-20T05:58:49.403Z,63.01
2019-04-20T06:00:55.401Z,62.91
2019-04-20T06:01:59.138Z,62.72
2019-04-20T06:03:56.810Z,63.10
2019-04-20T06:05:06.947Z,62.94
2019-04-20T06:06:59.780Z,62.75
2019-04-20T06:08:00.747Z,62.75
2019-04-20T06:09:05.670Z,62.46
2019-04-20T06:10:05.874Z,62.85
2019-04-20T06:11:02.380Z,63.04
2019-04-20T06:12:17.880Z,63.13
2019-04-20T06:12:55.495Z,62.65
2019-04-20T06:13:53.742Z,62.65
2019-04-20T06:14:52.282Z,62.27
2019-04-20T06:15:55.242Z,62.08
2019-04-20T06:17:01.934Z,62.27
2019-04-20T06:17:59.649Z,61.99
2019-04-20T06:19:06.819Z,61.99
2019-04-20T06:20:01.672Z,62.37
2019-04-20T06:21:02.381Z,62.65
2019-04-20T06:22:03.373Z,62.18
2019-04-20T06:23:05.946Z,62.27
2019-04-20T06:24:07.001Z,62.08
2019-04-20T06:25:09.987Z,62.18
2019-04-20T06:26:17.196Z,62.12
2019-04-20T06:27:14.627Z,62.30
2019-04-20T06:27:59.324Z,61.45
2019-04-20T06:28:51.976Z,62.12
2019-04-20T06:29:55.797Z,62.12
2019-04-20T06:30:52.568Z,61.45
2019-04-20T06:32:08.553Z,61.16
2019-04-20T06:32:59.243Z,61.45
2019-04-20T06:35:04.432Z,61.45
2019-04-20T06:36:17.994Z,61.25
2019-04-20T06:36:57.345Z,61.35
2019-04-20T06:38:10.715Z,61.16
2019-04-20T06:40:07.811Z,61.16
2019-04-20T06:41:16.106Z,60.97
2019-04-20T06:43:05.265Z,61.54
2019-04-20T06:44:02.716Z,61.07
2019-04-20T06:45:04.548Z,60.49
2019-04-20T06:46:05.680Z,60.62
2019-04-20T06:47:16.261Z,60.72
2019-04-20T06:48:06.284Z,60.33
2019-04-20T06:49:12.140Z,60.33
2019-04-20T06:50:04.262Z,61.00
2019-04-20T06:50:57.196Z,60.81
2019-04-20T06:52:13.155Z,60.24
2019-04-20T06:53:01.522Z,59.95
2019-04-20T06:53:53.643Z,59.76
2019-04-20T06:55:01.672Z,59.48
2019-04-20T06:56:06.690Z,59.70
2019-04-20T06:56:59.930Z,59.60
2019-04-20T06:58:02.798Z,59.41
2019-04-20T06:59:03.777Z,59.51
2019-04-20T06:59:59.820Z,59.31
2019-04-20T07:01:04.153Z,59.31
2019-04-20T07:02:14.229Z,58.36
2019-04-20T07:03:01.871Z,59.41
2019-04-20T07:04:22.431Z,58.75
2019-04-20T07:04:59.465Z,58.65
2019-04-20T07:06:24.543Z,58.55
2019-04-20T07:08:16.953Z,58.65
2019-04-20T07:09:06.589Z,58.84
2019-04-20T07:10:08.590Z,58.77
2019-04-20T07:11:05.866Z,58.77
2019-04-20T07:11:59.841Z,58.77
2019-04-20T07:12:58.033Z,58.58
2019-04-20T07:13:50.580Z,58.68
2019-04-20T07:14:54.142Z,58.58
2019-04-20T07:15:54.476Z,58.39
2019-04-20T07:17:10.946Z,58.87
2019-04-20T07:18:06.151Z,58.77
2019-04-20T07:19:00.745Z,58.20
2019-04-20T07:20:00.449Z,57.46
2019-04-20T07:21:04.312Z,57.56
2019-04-20T07:23:11.379Z,57.75
2019-04-20T07:24:03.592Z,56.99
2019-04-20T07:25:01.153Z,56.70
2019-04-20T07:26:12.783Z,56.60
2019-04-20T07:27:00.617Z,56.80
2019-04-20T07:28:05.864Z,56.80
2019-04-20T07:29:07.051Z,57.09
2019-04-20T07:30:04.031Z,56.51
2019-04-20T07:31:05.703Z,56.51
2019-04-20T07:32:00.158Z,56.54
2019-04-20T07:33:04.204Z,56.45
2019-04-20T07:34:05.022Z,56.16
2019-04-20T07:35:03.375Z,56.25
2019-04-20T07:36:04.118Z,55.68
2019-04-20T07:37:25.880Z,55.20
2019-04-20T07:38:20.653Z,55.68
2019-04-20T07:39:07.861Z,56.16
2019-04-20T07:40:07.151Z,55.71
2019-04-20T07:41:01.290Z,55.52
2019-04-20T07:42:08.124Z,55.71
2019-04-20T07:42:59.200Z,55.04
2019-04-20T07:44:11.849Z,54.94
2019-04-20T07:45:09.510Z,55.04
2019-04-20T07:46:01.817Z,54.66
2019-04-20T07:47:07.503Z,54.94
2019-04-20T07:48:09.020Z,54.56
2019-04-20T07:50:02.349Z,54.78
2019-04-20T07:50:56.847Z,54.39
2019-04-20T07:51:45.764Z,54.02
2019-04-20T07:52:51.376Z,53.73
2019-04-20T07:54:10.590Z,54.02
2019-04-20T07:56:05.150Z,53.44
2019-04-20T07:57:03.867Z,53.08
2019-04-20T07:57:57.860Z,52.42
2019-04-20T07:58:51.147Z,52.89
2019-04-20T08:00:00.353Z,52.61
2019-04-20T08:01:07.915Z,52.42
2019-04-20T08:02:08.152Z,52.34
2019-04-20T08:03:11.908Z,52.34
2019-04-20T08:04:05.997Z,52.15
2019-04-20T08:05:03.432Z,51.48
2019-04-20T08:05:52.874Z,52.15
2019-04-20T08:06:50.073Z,51.39
2019-04-20T08:07:54.633Z,51.58
2019-04-20T08:08:57.085Z,51.32
2019-04-20T08:09:51.305Z,51.03
2019-04-20T08:11:01.348Z,50.84
2019-04-20T08:12:14.153Z,50.46
2019-04-20T08:13:14.256Z,50.07
2019-04-20T08:14:07.359Z,49.98
2019-04-20T08:15:13.414Z,49.62
2019-04-20T08:16:11.594Z,49.91
2019-04-20T08:17:14.425Z,50.00
2019-04-20T08:17:59.852Z,49.81
2019-04-20T08:18:59.711Z,50.10
2019-04-20T08:20:02.756Z,49.81
2019-04-20T08:21:06.454Z,49.24
2019-04-20T08:22:14.097Z,48.97
2019-04-20T08:23:06.209Z,49.16
2019-04-20T08:24:03.839Z,48.88
2019-04-20T08:24:55.209Z,48.49
2019-04-20T08:25:54.361Z,48.59
2019-04-20T08:26:50.277Z,48.30
2019-04-20T08:27:44.515Z,48.13
2019-04-20T08:28:51.957Z,47.85
2019-04-20T08:29:58.172Z,47.56
2019-04-20T08:31:00.852Z,47.27
2019-04-20T08:32:04.565Z,46.79
2019-04-20T08:32:58.247Z,46.79
2019-04-20T08:34:15.148Z,47.10
2019-04-20T08:35:05.666Z,46.14
2019-04-20T08:36:04.345Z,45.95
2019-04-20T08:37:01.035Z,45.95
2019-04-20T08:38:32.483Z,45.47
2019-04-20T08:39:19.966Z,45.95
2019-04-20T08:40:07.636Z,45.57
2019-04-20T08:41:05.654Z,45.40
2019-04-20T08:42:06.381Z,45.59
2019-04-20T08:43:11.190Z,45.59
2019-04-20T08:44:18.727Z,45.78
2019-04-20T08:45:08.137Z,45.98
2019-04-20T08:46:05.590Z,45.11
2019-04-20T08:47:12.078Z,45.21
2019-04-20T08:48:12.850Z,44.92
2019-04-20T08:49:03.230Z,44.94
2019-04-20T08:50:09.483Z,44.84
2019-04-20T08:51:06.159Z,43.70
2019-04-20T08:52:23.857Z,43.70
2019-04-20T08:53:15.935Z,43.98
2019-04-20T08:54:03.314Z,44.08
2019-04-20T08:55:05.396Z,43.14
2019-04-20T08:55:55.368Z,43.52
2019-04-20T08:56:51.729Z,43.33
2019-04-20T08:57:44.638Z,43.14
2019-04-20T08:58:46.021Z,42.76
2019-04-20T08:59:48.239Z,42.85
2019-04-20T09:00:49.952Z,42.37
2019-04-20T09:01:44.782Z,42.10
2019-04-20T09:02:50.128Z,42.39
2019-04-20T09:03:56.483Z,41.62
2019-04-20T09:04:52.898Z,41.72
2019-04-20T09:05:56.592Z,41.55
2019-04-20T09:06:58.522Z,41.35
2019-04-20T09:07:56.547Z,41.83
2019-04-20T09:08:56.560Z,41.55
2019-04-20T09:10:10.161Z,40.78
2019-04-20T09:11:02.713Z,40.80
2019-04-20T09:12:03.685Z,40.51
2019-04-20T09:12:59.658Z,40.61
2019-04-20T09:13:50.119Z,39.54
2019-04-20T09:14:46.243Z,39.18
2019-04-20T09:15:45.230Z,39.37
2019-04-20T09:16:51.778Z,39.28
2019-04-20T09:17:51.782Z,38.99
2019-04-20T09:18:52.425Z,38.33
2019-04-20T09:19:54.872Z,37.85
2019-04-20T09:20:52.967Z,37.66
2019-04-20T09:21:53.046Z,37.37
2019-04-20T09:23:02.485Z,37.37
2019-04-20T09:25:16.427Z,37.29
2019-04-20T09:26:06.002Z,36.52
2019-04-20T09:27:01.129Z,36.43
2019-04-20T09:27:52.362Z,36.23
2019-04-20T09:28:59.034Z,35.65
2019-04-20T09:30:06.212Z,35.65
2019-04-20T09:30:53.253Z,35.10
2019-04-20T09:32:00.035Z,35.48
2019-04-20T09:33:08.060Z,35.10
2019-04-20T09:34:03.083Z,34.90
2019-04-20T09:35:07.796Z,34.80
2019-04-20T09:36:03.311Z,34.70
2019-04-20T09:37:04.532Z,34.22
2019-04-20T09:38:06.051Z,34.22
2019-04-20T09:38:56.738Z,34.03
2019-04-20T09:40:11.324Z,33.84
2019-04-20T09:41:01.145Z,33.36
2019-04-20T09:42:00.044Z,33.18
2019-04-20T09:42:46.199Z,32.60
2019-04-20T09:43:47.388Z,32.31
2019-04-20T09:44:51.151Z,31.73
2019-04-20T09:45:50.291Z,31.27
2019-04-20T09:46:51.313Z,31.46
2019-04-20T09:47:50.227Z,31.27
2019-04-20T09:48:53.622Z,31.46
2019-04-20T09:50:00.152Z,31.67
2019-04-20T09:51:02.271Z,31.28
2019-04-20T09:52:01.717Z,31.18
2019-04-20T09:53:02.455Z,31.38
2019-04-20T09:53:58.340Z,30.91
2019-04-20T09:55:03.330Z,29.36
2019-04-20T09:56:01.924Z,28.99
2019-04-20T09:57:09.466Z,28.31
2019-04-20T09:58:04.078Z,28.41
2019-04-20T09:59:09.559Z,28.13
2019-04-20T10:00:04.275Z,26.87
2019-04-20T10:01:01.798Z,26.98
2019-04-20T10:01:54.664Z,25.72
2019-04-20T10:02:48.350Z,25.92
2019-04-20T10:03:47.129Z,25.52
2019-04-20T10:04:47.345Z,26.20
2019-04-20T10:05:47.583Z,26.61
2019-04-20T10:06:47.641Z,26.31
2019-04-20T10:07:50.361Z,26.79
2019-04-20T10:08:52.471Z,24.67
2019-04-20T10:09:48.640Z,24.77
2019-04-20T10:10:48.991Z,24.78
2019-04-20T10:11:48.761Z,25.15
2019-04-20T10:12:47.957Z,25.46
2019-04-20T10:13:48.135Z,24.68
2019-04-20T10:14:47.387Z,24.87
2019-04-20T10:15:47.825Z,23.91
2019-04-20T10:16:47.485Z,23.92
2019-04-20T10:17:47.800Z,23.82
2019-04-20T10:18:52.004Z,23.05
2019-04-20T10:19:48.298Z,22.75
2019-04-20T10:20:47.617Z,23.05
2019-04-20T10:21:48.670Z,22.66
2019-04-20T10:22:48.826Z,22.27
2019-04-20T10:23:48.275Z,22.67
2019-04-20T10:24:50.330Z,21.99
2019-04-20T10:25:48.775Z,21.41
2019-04-20T10:26:48.267Z,21.51
2019-04-20T10:27:47.883Z,20.83
2019-04-20T10:28:47.920Z,19.96
2019-04-20T10:29:49.254Z,19.86
2019-04-20T10:30:48.406Z,19.68
2019-04-20T10:31:53.217Z,20.65
2019-04-20T10:32:50.868Z,20.84
2019-04-20T10:33:49.275Z,21.51
2019-04-20T10:34:48.558Z,21.42
2019-04-20T10:35:48.190Z,21.42
2019-04-20T10:36:48.227Z,20.94
2019-04-20T10:37:49.404Z,20.74
2019-04-20T10:38:48.543Z,20.74
2019-04-20T10:39:48.728Z,20.55
2019-04-20T10:40:58.457Z,20.74
2019-04-20T10:41:52.615Z,21.13
2019-04-20T10:42:48.459Z,20.95
2019-04-20T10:43:48.989Z,21.43
2019-04-20T10:44:48.535Z,21.24
2019-04-20T10:45:48.832Z,21.04
2019-04-20T10:46:49.155Z,20.85
2019-04-20T10:47:48.653Z,20.07
2019-04-20T10:48:51.680Z,19.60
2019-04-20T10:49:49.285Z,19.99
2019-04-20T10:50:49.314Z,19.89
2019-04-20T10:51:49.544Z,19.42
2019-04-20T10:52:49.964Z,19.12
2019-04-20T10:53:48.888Z,19.12
2019-04-20T10:54:50.277Z,18.64
2019-04-20T10:55:49.486Z,18.83
2019-04-20T10:56:49.783Z,18.54
2019-04-20T10:57:49.388Z,18.64
2019-04-20T10:58:49.648Z,18.25
2019-04-20T10:59:49.848Z,17.58
2019-04-20T11:00:50.051Z,17.58
2019-04-20T11:01:49.725Z,17.38
2019-04-20T11:02:50.839Z,17.58
2019-04-20T11:03:50.348Z,17.58
2019-04-20T11:04:50.522Z,17.77
2019-04-20T11:05:50.826Z,18.45
2019-04-20T11:06:50.337Z,17.58
2019-04-20T11:07:50.511Z,17.68
2019-04-20T11:08:50.701Z,16.81
2019-04-20T11:10:02.265Z,17.20
2019-04-20T11:11:00.259Z,17.11
2019-04-20T11:11:50.312Z,16.82
2019-04-20T11:12:50.530Z,17.11
2019-04-20T11:13:51.072Z,17.21
2019-04-20T11:14:50.202Z,17.98
2019-04-20T11:15:50.561Z,17.21
2019-04-20T11:16:50.808Z,16.33
2019-04-20T11:17:51.269Z,16.91
2019-04-20T11:18:49.873Z,16.24
2019-04-20T11:19:49.911Z,16.83
2019-04-20T11:20:51.077Z,16.73
2019-04-20T11:21:50.305Z,15.95
2019-04-20T11:22:50.529Z,16.05
2019-04-20T11:23:50.075Z,16.05
2019-04-20T11:24:50.273Z,16.53
2019-04-20T11:25:50.503Z,16.63
2019-04-20T11:26:50.192Z,16.53
2019-04-20T11:27:50.231Z,16.14
2019-04-20T11:28:50.422Z,16.14
2019-04-20T11:29:50.309Z,16.34
2019-04-20T11:30:50.351Z,16.73
2019-04-20T11:31:53.072Z,17.21
2019-04-20T11:32:51.812Z,17.21
2019-04-20T11:33:50.477Z,16.34
2019-04-20T11:34:51.241Z,15.75
2019-04-20T11:35:51.545Z,16.05
2019-04-20T11:36:50.924Z,16.14
2019-04-20T11:37:51.254Z,16.73
2019-04-20T11:38:51.147Z,16.34
2019-04-20T11:39:50.830Z,16.34
2019-04-20T11:41:02.726Z,16.34
2019-04-20T11:41:51.731Z,15.86
2019-04-20T11:42:50.842Z,16.44
2019-04-20T11:43:51.557Z,16.15
2019-04-20T11:44:50.910Z,16.05
2019-04-20T11:45:51.133Z,16.35
2019-04-20T11:46:52.329Z,15.86
2019-04-20T11:47:51.579Z,15.37
2019-04-20T11:48:51.805Z,16.15
2019-04-20T11:49:51.348Z,15.77
2019-04-20T11:50:51.642Z,15.67
2019-04-20T11:51:51.852Z,16.16
2019-04-20T11:52:51.571Z,15.77
2019-04-20T11:53:52.238Z,16.06
2019-04-20T11:54:52.513Z,16.16
2019-04-20T11:55:52.147Z,15.87
2019-04-20T11:56:51.395Z,15.58
2019-04-20T11:57:51.434Z,16.16
2019-04-20T11:58:51.481Z,14.89
2019-04-20T11:59:52.892Z,15.28
2019-04-20T12:01:00.750Z,14.90
2019-04-20T12:01:57.506Z,14.70
2019-04-20T12:02:54.227Z,15.09
2019-04-20T12:04:00.357Z,15.67
2019-04-20T12:05:06.281Z,15.19
2019-04-20T12:05:55.752Z,15.39
2019-04-20T12:06:52.866Z,15.28
2019-04-20T12:07:53.054Z,15.67
2019-04-20T12:08:52.579Z,14.99
2019-04-20T12:09:51.919Z,14.60
2019-04-20T12:10:56.479Z,14.70
2019-04-20T12:12:02.074Z,14.61
2019-04-20T12:12:55.432Z,14.60
2019-04-20T12:13:52.291Z,14.70
2019-04-20T12:14:52.590Z,14.99
2019-04-20T12:15:52.164Z,14.89
2019-04-20T12:16:53.386Z,14.60
2019-04-20T12:17:53.554Z,14.99
2019-04-20T12:18:52.550Z,14.99
2019-04-20T12:19:53.158Z,14.51
2019-04-20T12:20:52.647Z,14.89
2019-04-20T12:21:53.813Z,15.09
2019-04-20T12:22:52.640Z,15.67
2019-04-20T12:23:52.488Z,14.99
2019-04-20T12:24:52.529Z,14.89
2019-04-20T12:25:52.569Z,14.89
2019-04-20T12:26:52.611Z,14.89
2019-04-20T12:27:57.079Z,14.60
2019-04-20T12:28:53.785Z,14.12
2019-04-20T12:29:53.959Z,14.70
2019-04-20T12:30:55.974Z,14.89
2019-04-20T12:31:57.394Z,14.51
2019-04-20T12:32:57.527Z,14.89
2019-04-20T12:33:52.895Z,15.48
2019-04-20T12:34:54.051Z,14.70
2019-04-20T12:35:54.199Z,14.41
2019-04-20T12:36:53.320Z,14.99
2019-04-20T12:37:53.057Z,14.60
2019-04-20T12:38:53.209Z,14.79
2019-04-20T12:39:53.324Z,14.99
2019-04-20T12:40:53.178Z,15.58
2019-04-20T12:41:57.967Z,14.60
2019-04-20T12:42:53.269Z,14.50
2019-04-20T12:43:53.889Z,15.47
2019-04-20T12:44:53.465Z,15.67
2019-04-20T12:45:53.815Z,15.77
2019-04-20T12:46:53.932Z,14.69
2019-04-20T12:47:53.527Z,14.59
2019-04-20T12:48:53.586Z,14.98
2019-04-20T12:49:53.788Z,15.08
2019-04-20T12:50:53.586Z,15.37
2019-04-20T12:51:58.050Z,15.28
2019-04-20T12:52:54.749Z,14.98
2019-04-20T12:53:53.708Z,14.98
2019-04-20T12:54:54.543Z,15.48
2019-04-20T12:55:54.789Z,15.77
2019-04-20T12:56:53.827Z,15.38
2019-04-20T12:57:54.517Z,15.28
2019-04-20T12:58:53.912Z,14.89
2019-04-20T12:59:54.154Z,14.70
2019-04-20T13:00:54.344Z,14.90
2019-04-20T13:01:55.182Z,14.51
2019-04-20T13:02:54.073Z,14.89
2019-04-20T13:03:55.308Z,15.39
2019-04-20T13:04:55.267Z,15.00
2019-04-20T13:05:54.369Z,14.03
2019-04-20T13:06:55.274Z,13.73
2019-04-20T13:07:58.946Z,14.31
2019-04-20T13:08:58.430Z,14.70
2019-04-20T13:09:54.808Z,14.89
2019-04-20T13:10:54.871Z,14.71
2019-04-20T13:11:59.369Z,14.61
2019-04-20T13:12:54.503Z,14.61
2019-04-20T13:13:54.613Z,14.51
2019-04-20T13:14:54.562Z,15.09
2019-04-20T13:15:54.604Z,15.19
2019-04-20T13:18:37.423Z,13.93
2019-04-20T13:21:02.013Z,14.42
2019-04-20T13:22:01.520Z,13.84
2019-04-20T13:23:56.241Z,14.13
2019-04-20T13:24:54.975Z,14.81
2019-04-20T13:26:58.718Z,14.62
2019-04-20T13:27:58.938Z,14.62
2019-04-20T13:30:03.225Z,15.01
2019-04-20T13:31:03.853Z,14.81
2019-04-20T13:33:07.987Z,14.62
2019-04-20T13:34:07.609Z,15.01
2019-04-20T13:36:12.378Z,14.90
2019-04-20T13:37:10.868Z,15.00
2019-04-20T13:39:14.927Z,15.29
2019-04-20T13:40:15.665Z,15.09
2019-04-20T13:42:24.374Z,15.39
2019-04-20T13:43:19.719Z,15.19
2019-04-20T13:45:23.096Z,15.58
2019-04-20T13:46:23.128Z,15.68
2019-04-20T13:48:27.181Z,14.89
2019-04-20T13:49:27.216Z,15.77
2019-04-20T13:51:32.748Z,16.94
2019-04-20T13:52:31.303Z,15.87
2019-04-20T13:54:27.905Z,15.77
2019-04-20T13:55:25.427Z,15.67
2019-04-20T13:57:28.366Z,15.58
2019-04-20T13:58:29.748Z,15.88
2019-04-20T14:00:32.655Z,15.58
2019-04-20T14:01:32.681Z,15.77
2019-04-20T14:03:36.671Z,15.97
2019-04-20T14:04:36.926Z,15.68
2019-04-20T14:06:41.472Z,14.99
2019-04-20T14:07:41.749Z,15.67
2019-04-20T14:09:45.661Z,15.48
2019-04-20T14:10:45.083Z,15.19
2019-04-20T14:12:57.278Z,15.38
2019-04-20T14:13:54.856Z,15.48
2019-04-20T14:15:53.402Z,15.77
2019-04-20T14:16:53.038Z,15.97
2019-04-20T14:18:56.969Z,14.99
2019-04-20T14:19:57.207Z,15.48
2019-04-20T14:22:02.134Z,16.64
2019-04-20T14:23:01.083Z,15.67
2019-04-20T14:25:05.176Z,16.36
2019-04-20T14:26:05.167Z,16.16
2019-04-20T14:28:09.221Z,16.44
2019-04-20T14:29:10.319Z,16.06
2019-04-20T14:31:14.089Z,15.67
2019-04-20T14:32:14.645Z,15.47
2019-04-20T14:34:06.816Z,15.67
2019-04-20T14:35:07.177Z,15.57
2019-04-20T14:37:11.004Z,16.15
2019-04-20T14:38:10.438Z,15.47
2019-04-20T14:40:14.687Z,15.37
2019-04-20T14:41:16.040Z,16.35
2019-04-20T14:43:19.374Z,15.27
2019-04-20T14:44:19.627Z,15.66
2019-04-20T14:46:23.046Z,15.75
2019-04-20T14:47:23.629Z,15.17
2019-04-20T14:49:26.781Z,15.47
2019-04-20T14:50:27.589Z,14.69
2019-04-20T14:51:27.824Z,15.08
2019-04-20T14:52:26.878Z,15.45
2019-04-20T14:53:27.428Z,15.65
2019-04-20T14:54:27.656Z,15.65
2019-04-20T14:55:27.001Z,15.17
2019-04-20T14:56:27.408Z,15.94
2019-04-20T14:57:27.642Z,15.65
2019-04-20T14:58:27.122Z,15.36
2019-04-20T14:59:27.493Z,14.68
2019-04-20T15:00:27.769Z,15.17
2019-04-20T15:01:27.252Z,15.07
2019-04-20T15:02:28.014Z,15.17
2019-04-20T15:03:28.351Z,14.96
2019-04-20T15:04:28.950Z,14.67
2019-04-20T15:05:28.770Z,14.77
2019-04-20T15:06:27.567Z,14.77
2019-04-20T15:07:28.728Z,14.77
2019-04-20T15:08:27.525Z,14.87
2019-04-20T15:09:28.790Z,14.48
2019-04-20T15:10:28.917Z,14.67
2019-04-20T15:11:27.644Z,15.35
2019-04-20T15:12:38.960Z,15.25
2019-04-20T15:13:28.885Z,15.45
2019-04-20T15:14:29.082Z,15.55
2019-04-20T15:15:28.382Z,15.74
2019-04-20T15:16:28.726Z,15.25
2019-04-20T15:17:27.902Z,14.67
2019-04-20T15:18:29.261Z,14.28
2019-04-20T15:19:27.972Z,14.67
2019-04-20T15:20:28.013Z,14.28
2019-04-20T15:21:29.157Z,14.47
2019-04-20T15:22:29.466Z,14.95
2019-04-20T15:23:28.129Z,15.34
2019-04-20T15:24:29.387Z,15.34
2019-04-20T15:25:29.595Z,14.37
2019-04-20T15:26:28.689Z,15.54
2019-04-20T15:27:28.292Z,14.76
2019-04-20T15:28:28.542Z,14.57
2019-04-20T15:29:28.599Z,13.89
2019-04-20T15:30:28.410Z,14.17
2019-04-20T15:31:28.452Z,14.75
2019-04-20T15:32:29.144Z,14.56
2019-04-20T15:33:28.532Z,14.75
2019-04-20T15:34:28.908Z,14.95
2019-04-20T15:35:28.610Z,14.37
2019-04-20T15:36:28.649Z,14.47